createdAt,value
2022-10-15T00:00:50.306Z,34.17
2022-10-15T00:01:53.490Z,35.63
2022-10-15T00:02:57.943Z,35.58
2022-10-15T00:05:09.748Z,37.67
2022-10-15T00:06:17.785Z,37.75
2022-10-15T00:07:20.961Z,38.85
2022-10-15T00:08:23.936Z,35.08
2022-10-15T00:09:26.855Z,41.13
2022-10-15T00:10:30.026Z,36.63
2022-10-15T00:11:33.093Z,36.85
2022-10-15T00:12:36.094Z,33.40
2022-10-15T00:13:40.126Z,36.42
2022-10-15T00:14:43.060Z,36.67
2022-10-15T00:15:45.927Z,32.17
2022-10-15T00:16:49.511Z,40.03
2022-10-15T00:17:52.520Z,32.38
2022-10-15T00:18:59.954Z,33.55
2022-10-15T00:20:05.881Z,31.15
2022-10-15T00:21:11.764Z,33.85
2022-10-15T00:22:14.611Z,37.05
2022-10-15T00:23:17.495Z,42.22
2022-10-15T00:24:20.354Z,32.30
2022-10-15T00:25:23.398Z,35.92
2022-10-15T00:26:29.488Z,31.63
2022-10-15T00:27:33.268Z,36.17
2022-10-15T00:28:36.459Z,35.00
2022-10-15T00:29:39.482Z,32.03
2022-10-15T00:30:42.395Z,37.15
2022-10-15T00:31:45.291Z,29.92
2022-10-15T00:32:49.355Z,40.95
2022-10-15T00:33:54.056Z,32.60
2022-10-15T00:34:58.857Z,35.70
2022-10-15T00:36:16.137Z,37.47
2022-10-15T00:37:21.035Z,30.23
2022-10-15T00:38:23.891Z,33.00
2022-10-15T00:39:27.018Z,29.33
2022-10-15T00:40:30.152Z,32.45
2022-10-15T00:41:38.094Z,36.13
2022-10-15T00:42:41.541Z,35.42
2022-10-15T00:44:01.093Z,33.47
2022-10-15T00:45:04.677Z,31.55
2022-10-15T00:46:32.494Z,31.02
2022-10-15T00:47:49.127Z,28.88
2022-10-15T00:50:15.464Z,32.17
2022-10-15T00:51:20.904Z,31.98
2022-10-15T00:52:37.457Z,37.95
2022-10-15T00:53:40.959Z,37.20
2022-10-15T00:55:09.339Z,37.45
2022-10-15T00:56:13.873Z,40.08
2022-10-15T00:57:16.789Z,35.03
2022-10-15T00:58:27.830Z,31.48
2022-10-15T00:59:32.657Z,38.10
2022-10-15T01:00:35.744Z,33.50
2022-10-15T01:01:39.202Z,37.75
2022-10-15T01:02:44.244Z,33.60
2022-10-15T01:03:47.205Z,35.05
2022-10-15T01:04:50.811Z,38.67
2022-10-15T01:05:54.945Z,37.97
2022-10-15T01:06:58.027Z,37.85
2022-10-15T01:08:00.938Z,38.40
2022-10-15T01:09:04.914Z,31.42
2022-10-15T01:10:10.091Z,35.10
2022-10-15T01:11:49.114Z,34.53
2022-10-15T01:13:14.122Z,40.33
2022-10-15T01:14:54.683Z,39.15
2022-10-15T01:16:07.950Z,25.60
2022-10-15T01:17:16.227Z,27.48
2022-10-15T01:18:40.955Z,27.77
2022-10-15T01:20:50.698Z,31.30
2022-10-15T01:22:13.537Z,29.98
2022-10-15T01:23:34.350Z,27.30
2022-10-15T01:25:36.631Z,26.00
2022-10-15T01:27:01.627Z,31.67
2022-10-15T01:28:37.923Z,31.98
2022-10-15T01:30:19.204Z,25.02
2022-10-15T01:31:44.416Z,25.98
2022-10-15T01:33:05.588Z,26.00
2022-10-15T01:34:46.621Z,25.77
2022-10-15T01:36:04.009Z,32.63
2022-10-15T01:37:18.428Z,23.85
2022-10-15T01:38:49.748Z,29.40
2022-10-15T01:40:04.290Z,24.10
2022-10-15T01:41:31.499Z,25.88
2022-10-15T01:43:03.872Z,25.90
2022-10-15T01:44:39.103Z,28.45
2022-10-15T01:45:57.578Z,25.23
2022-10-15T01:47:32.519Z,26.70
2022-10-15T01:48:38.824Z,26.02
2022-10-15T01:49:45.785Z,30.40
2022-10-15T01:50:53.060Z,27.15
2022-10-15T01:51:58.933Z,30.45
2022-10-15T01:53:05.686Z,26.90
2022-10-15T01:54:15.145Z,31.10
2022-10-15T01:55:21.516Z,28.08
2022-10-15T01:56:26.542Z,24.67
2022-10-15T01:57:32.608Z,25.98
2022-10-15T01:58:42.148Z,24.90
2022-10-15T01:59:45.584Z,24.40
2022-10-15T02:00:49.265Z,24.50
2022-10-15T02:01:53.207Z,21.98
2022-10-15T02:03:02.562Z,26.02
2022-10-15T02:04:24.144Z,30.65
2022-10-15T02:05:44.218Z,25.83
2022-10-15T02:07:00.353Z,26.23
2022-10-15T02:08:39.325Z,23.45
2022-10-15T02:10:12.798Z,28.60
2022-10-15T02:11:17.889Z,30.30
2022-10-15T02:12:47.908Z,25.42
2022-10-15T02:14:16.897Z,23.77
2022-10-15T02:16:02.418Z,30.38
2022-10-15T02:17:12.130Z,28.80
2022-10-15T02:18:59.506Z,26.60
2022-10-15T02:20:21.272Z,30.15
2022-10-15T02:21:39.277Z,29.08
2022-10-15T02:23:01.559Z,27.70
2022-10-15T02:24:20.029Z,27.75
2022-10-15T02:25:25.971Z,28.63
2022-10-15T02:26:30.604Z,23.40
2022-10-15T02:27:35.410Z,29.42
2022-10-15T02:28:43.045Z,25.63
2022-10-15T02:29:48.068Z,29.23
2022-10-15T02:30:54.557Z,34.17
2022-10-15T02:32:00.633Z,29.25
2022-10-15T02:33:04.395Z,31.77
2022-10-15T02:34:13.249Z,35.08
2022-10-15T02:35:16.750Z,33.22
2022-10-15T02:36:20.673Z,31.05
2022-10-15T02:37:29.096Z,27.85
2022-10-15T02:38:33.222Z,29.60
2022-10-15T02:39:36.231Z,27.95
2022-10-15T02:40:42.679Z,39.50
2022-10-15T02:41:47.271Z,32.05
2022-10-15T02:42:52.166Z,23.08
2022-10-15T02:43:55.444Z,31.88
2022-10-15T02:44:58.364Z,38.63
2022-10-15T02:46:01.257Z,33.35
2022-10-15T02:47:04.463Z,29.58
2022-10-15T02:48:08.248Z,27.98
2022-10-15T02:49:11.302Z,28.73
2022-10-15T02:50:14.094Z,29.98
2022-10-15T02:51:16.957Z,32.33
2022-10-15T02:52:19.777Z,28.13
2022-10-15T02:53:22.684Z,27.05
2022-10-15T02:54:25.542Z,25.15
2022-10-15T02:55:28.410Z,28.75
2022-10-15T02:56:31.768Z,33.60
2022-10-15T02:57:34.760Z,29.67
2022-10-15T02:58:38.517Z,29.23
2022-10-15T02:59:42.157Z,27.58
2022-10-15T03:00:45.407Z,29.10
2022-10-15T03:01:49.162Z,24.90
2022-10-15T03:02:52.357Z,27.27
2022-10-15T03:03:55.978Z,22.95
2022-10-15T03:04:58.850Z,27.98
2022-10-15T03:06:01.818Z,30.23
2022-10-15T03:07:05.350Z,25.88
2022-10-15T03:08:08.360Z,34.67
2022-10-15T03:09:11.553Z,27.20
2022-10-15T03:10:14.358Z,30.55
2022-10-15T03:11:17.321Z,29.33
2022-10-15T03:12:23.256Z,32.00
2022-10-15T03:13:28.857Z,27.77
2022-10-15T03:14:31.734Z,27.50
2022-10-15T03:15:37.443Z,25.25
2022-10-15T03:16:40.505Z,29.15
2022-10-15T03:17:43.421Z,30.75
2022-10-15T03:18:46.324Z,30.52
2022-10-15T03:19:49.123Z,27.13
2022-10-15T03:20:58.649Z,32.88
2022-10-15T03:22:01.611Z,33.97
2022-10-15T03:23:15.456Z,34.35
2022-10-15T03:24:23.114Z,27.13
2022-10-15T03:25:26.024Z,36.13
2022-10-15T03:26:36.089Z,35.17
2022-10-15T03:27:39.017Z,31.23
2022-10-15T03:28:51.939Z,32.92
2022-10-15T03:30:08.717Z,37.47
2022-10-15T03:31:13.550Z,38.53
2022-10-15T03:32:16.869Z,37.85
2022-10-15T03:33:21.924Z,40.55
2022-10-15T03:34:27.398Z,38.55
2022-10-15T03:35:30.666Z,38.22
2022-10-15T03:36:33.786Z,39.90
2022-10-15T03:37:37.571Z,41.05
2022-10-15T03:38:42.278Z,40.83
2022-10-15T03:39:48.961Z,45.38
2022-10-15T03:40:54.046Z,38.83
2022-10-15T03:42:05.205Z,50.00
2022-10-15T03:43:13.847Z,39.92
2022-10-15T03:44:16.955Z,46.03
2022-10-15T03:45:24.652Z,38.80
2022-10-15T03:46:40.252Z,40.92
2022-10-15T03:47:43.067Z,42.83
2022-10-15T03:48:50.486Z,41.55
2022-10-15T03:49:54.211Z,38.58
2022-10-15T03:50:57.754Z,39.60
2022-10-15T03:52:01.116Z,43.00
2022-10-15T03:53:05.647Z,47.65
2022-10-15T03:54:09.628Z,42.42
2022-10-15T03:55:21.703Z,44.22
2022-10-15T03:56:24.594Z,42.88
2022-10-15T03:57:29.397Z,39.65
2022-10-15T03:58:38.016Z,40.83
2022-10-15T04:00:53.573Z,43.40
2022-10-15T04:01:56.536Z,45.40
2022-10-15T04:02:59.395Z,47.28
2022-10-15T04:04:04.356Z,38.53
2022-10-15T04:05:07.353Z,40.22
2022-10-15T04:06:11.713Z,40.33
2022-10-15T04:07:15.378Z,44.55
2022-10-15T04:08:18.244Z,53.03
2022-10-15T04:09:21.479Z,43.97
2022-10-15T04:10:25.275Z,49.70
2022-10-15T04:11:29.027Z,47.95
2022-10-15T04:12:38.014Z,45.38
2022-10-15T04:13:43.892Z,40.90
2022-10-15T04:14:46.943Z,38.47
2022-10-15T04:15:49.833Z,39.78
2022-10-15T04:16:53.460Z,45.22
2022-10-15T04:17:59.221Z,44.22
2022-10-15T04:19:07.320Z,49.80
2022-10-15T04:20:13.062Z,43.97
2022-10-15T04:21:18.724Z,45.80
2022-10-15T04:22:26.786Z,35.92
2022-10-15T04:23:35.211Z,42.88
2022-10-15T04:24:59.547Z,46.00
2022-10-15T04:26:04.374Z,39.83
2022-10-15T04:27:07.683Z,47.78
2022-10-15T04:28:10.581Z,43.90
2022-10-15T04:29:14.819Z,39.13
2022-10-15T04:30:17.796Z,45.72
2022-10-15T04:31:27.968Z,38.58
2022-10-15T04:32:30.800Z,41.35
2022-10-15T04:33:33.745Z,49.72
2022-10-15T04:34:37.231Z,38.92
2022-10-15T04:35:40.035Z,39.17
2022-10-15T04:36:45.953Z,36.22
2022-10-15T04:37:51.994Z,49.85
2022-10-15T04:38:54.953Z,40.35
2022-10-15T04:40:13.964Z,40.83
2022-10-15T04:41:16.840Z,39.78
2022-10-15T04:42:35.585Z,39.20
2022-10-15T04:43:39.506Z,42.08
2022-10-15T04:44:44.102Z,36.67
2022-10-15T04:45:48.373Z,39.78
2022-10-15T04:46:54.100Z,43.80
2022-10-15T04:48:05.942Z,40.13
2022-10-15T04:49:08.858Z,39.28
2022-10-15T04:50:12.159Z,46.67
2022-10-15T04:51:37.981Z,38.90
2022-10-15T04:52:54.132Z,41.00
2022-10-15T04:53:57.984Z,45.17
2022-10-15T04:55:03.076Z,40.58
2022-10-15T04:56:10.463Z,36.88
2022-10-15T04:57:14.000Z,44.30
2022-10-15T04:58:16.916Z,38.58
2022-10-15T04:59:19.918Z,40.83
2022-10-15T05:00:42.877Z,37.78
2022-10-15T05:02:01.593Z,45.83
2022-10-15T05:03:08.198Z,34.75
2022-10-15T05:04:28.078Z,40.97
2022-10-15T05:05:31.056Z,45.33
2022-10-15T05:06:37.710Z,40.20
2022-10-15T05:07:52.096Z,38.10
2022-10-15T05:08:55.142Z,41.50
2022-10-15T05:10:02.815Z,40.80
2022-10-15T05:11:09.430Z,37.38
2022-10-15T05:12:12.693Z,40.33
2022-10-15T05:13:15.832Z,42.95
2022-10-15T05:14:18.884Z,39.80
2022-10-15T05:15:38.257Z,36.00
2022-10-15T05:16:43.804Z,39.15
2022-10-15T05:17:46.676Z,42.55
2022-10-15T05:18:52.998Z,40.78
2022-10-15T05:19:55.920Z,45.90
2022-10-15T05:21:02.958Z,41.08
2022-10-15T05:22:05.820Z,36.45
2022-10-15T05:23:12.473Z,41.30
2022-10-15T05:24:17.232Z,39.88
2022-10-15T05:25:40.390Z,43.55
2022-10-15T05:26:43.331Z,34.22
2022-10-15T05:27:46.224Z,38.72
2022-10-15T05:28:50.656Z,38.25
2022-10-15T05:30:01.618Z,40.08
2022-10-15T05:31:30.770Z,34.97
2022-10-15T05:32:40.914Z,35.00
2022-10-15T05:33:53.199Z,34.85
2022-10-15T05:35:02.292Z,36.50
2022-10-15T05:36:26.676Z,40.47
2022-10-15T05:37:31.830Z,35.33
2022-10-15T05:38:35.573Z,36.35
2022-10-15T05:39:38.524Z,38.42
2022-10-15T05:40:41.515Z,39.58
2022-10-15T05:41:53.556Z,35.40
2022-10-15T05:43:03.417Z,38.13
2022-10-15T05:44:06.925Z,44.15
2022-10-15T05:45:10.488Z,34.80
2022-10-15T05:46:13.388Z,44.70
2022-10-15T05:47:16.323Z,36.08
2022-10-15T05:48:19.355Z,33.83
2022-10-15T05:49:22.358Z,36.40
2022-10-15T05:50:43.897Z,36.00
2022-10-15T05:51:51.355Z,36.08
2022-10-15T05:53:08.660Z,34.63
2022-10-15T05:54:22.524Z,35.47
2022-10-15T05:55:25.447Z,42.15
2022-10-15T05:56:28.403Z,35.45
2022-10-15T05:57:31.388Z,33.92
2022-10-15T05:58:37.688Z,36.45
2022-10-15T05:59:40.831Z,42.72
2022-10-15T06:00:44.085Z,41.50
2022-10-15T06:01:47.212Z,38.97
2022-10-15T06:02:50.148Z,39.85
2022-10-15T06:03:53.210Z,38.95
2022-10-15T06:04:56.413Z,35.20
2022-10-15T06:05:59.707Z,41.88
2022-10-15T06:07:06.242Z,37.05
2022-10-15T06:08:08.967Z,39.35
2022-10-15T06:09:11.776Z,36.38
2022-10-15T06:10:14.689Z,38.42
2022-10-15T06:11:18.082Z,34.08
2022-10-15T06:12:21.027Z,38.88
2022-10-15T06:13:24.042Z,36.95
2022-10-15T06:14:27.056Z,39.78
2022-10-15T06:15:30.099Z,35.58
2022-10-15T06:16:33.508Z,35.83
2022-10-15T06:17:36.720Z,34.65
2022-10-15T06:18:40.355Z,33.47
2022-10-15T06:19:43.210Z,34.85
2022-10-15T06:20:52.972Z,36.10
2022-10-15T06:21:55.922Z,37.63
2022-10-15T06:23:00.529Z,34.88
2022-10-15T06:24:06.291Z,32.55
2022-10-15T06:25:12.047Z,33.85
2022-10-15T06:26:14.896Z,34.25
2022-10-15T06:27:17.892Z,33.03
2022-10-15T06:28:20.851Z,35.30
2022-10-15T06:29:23.677Z,32.50
2022-10-15T06:30:30.601Z,30.50
2022-10-15T06:31:33.595Z,36.40
2022-10-15T06:32:36.530Z,34.35
2022-10-15T06:33:39.564Z,28.83
2022-10-15T06:34:42.472Z,37.58
2022-10-15T06:35:45.534Z,32.85
2022-10-15T06:36:48.265Z,38.05
2022-10-15T06:37:51.790Z,32.05
2022-10-15T06:38:54.754Z,30.98
2022-10-15T06:39:57.651Z,33.10
2022-10-15T06:41:03.673Z,34.88
2022-10-15T06:42:06.886Z,36.00
2022-10-15T06:43:15.556Z,32.85
2022-10-15T06:44:18.858Z,32.55
2022-10-15T06:45:22.051Z,35.05
2022-10-15T06:46:24.958Z,33.90
2022-10-15T06:47:27.940Z,34.58
2022-10-15T06:48:30.928Z,29.83
2022-10-15T06:49:33.847Z,35.03
2022-10-15T06:50:38.393Z,32.45
2022-10-15T06:51:41.355Z,31.90
2022-10-15T06:52:44.563Z,30.92
2022-10-15T06:53:47.667Z,31.52
2022-10-15T06:54:51.283Z,30.58
2022-10-15T06:55:59.955Z,30.88
2022-10-15T06:57:02.748Z,31.40
2022-10-15T06:58:05.718Z,32.90
2022-10-15T06:59:08.671Z,36.35
2022-10-15T07:00:12.610Z,29.33
2022-10-15T07:01:15.599Z,31.73
2022-10-15T07:02:19.479Z,30.15
2022-10-15T07:03:22.482Z,29.17
2022-10-15T07:04:25.405Z,25.52
2022-10-15T07:05:28.280Z,32.35
2022-10-15T07:06:31.117Z,27.00
2022-10-15T07:07:34.146Z,31.70
2022-10-15T07:08:37.155Z,24.35
2022-10-15T07:09:40.242Z,29.48
2022-10-15T07:10:43.106Z,27.02
2022-10-15T07:11:46.243Z,30.75
2022-10-15T07:12:49.231Z,33.78
2022-10-15T07:13:52.218Z,26.17
2022-10-15T07:14:55.123Z,25.30
2022-10-15T07:15:58.031Z,28.33
2022-10-15T07:17:00.841Z,26.67
2022-10-15T07:18:04.960Z,22.73
2022-10-15T07:19:07.808Z,25.92
2022-10-15T07:20:10.871Z,25.92
2022-10-15T07:21:13.781Z,28.73
2022-10-15T07:22:16.639Z,26.55
2022-10-15T07:23:22.861Z,23.05
2022-10-15T07:24:28.541Z,24.98
2022-10-15T07:25:31.776Z,25.55
2022-10-15T07:26:34.887Z,26.35
2022-10-15T07:27:39.735Z,26.58
2022-10-15T07:28:42.783Z,26.48
2022-10-15T07:29:45.756Z,23.05
2022-10-15T07:30:48.579Z,25.02
2022-10-15T07:31:51.575Z,22.88
2022-10-15T07:32:57.789Z,25.00
2022-10-15T07:34:00.669Z,23.73
2022-10-15T07:35:05.306Z,22.25
2022-10-15T07:36:12.747Z,22.60
2022-10-15T07:37:16.039Z,22.60
2022-10-15T07:38:18.915Z,23.48
2022-10-15T07:39:21.908Z,22.90
2022-10-15T07:40:25.348Z,23.50
2022-10-15T07:41:28.414Z,21.15
2022-10-15T07:42:31.345Z,21.25
2022-10-15T07:43:35.952Z,24.10
2022-10-15T07:44:38.967Z,20.20
2022-10-15T07:45:49.687Z,21.40
2022-10-15T07:46:52.591Z,26.13
2022-10-15T07:47:55.582Z,20.60
2022-10-15T07:48:58.468Z,19.45
2022-10-15T07:50:01.416Z,24.88
2022-10-15T07:51:07.349Z,22.63
2022-10-15T07:52:10.375Z,25.08
2022-10-15T07:53:13.314Z,23.40
2022-10-15T07:54:16.273Z,19.10
2022-10-15T07:55:19.142Z,18.45
2022-10-15T07:56:22.202Z,24.70
2022-10-15T07:57:25.271Z,23.67
2022-10-15T07:58:30.782Z,25.15
2022-10-15T07:59:35.333Z,22.10
2022-10-15T08:00:38.164Z,24.52
2022-10-15T08:01:40.978Z,23.73
2022-10-15T08:02:43.819Z,20.80
2022-10-15T08:03:47.658Z,20.52
2022-10-15T08:04:50.690Z,20.30
2022-10-15T08:05:54.836Z,17.52
2022-10-15T08:07:00.132Z,24.10
2022-10-15T08:08:03.570Z,21.23
2022-10-15T08:09:06.414Z,21.92
2022-10-15T08:10:10.651Z,20.35
2022-10-15T08:11:16.867Z,26.33
2022-10-15T08:12:19.929Z,18.40
2022-10-15T08:13:23.247Z,21.85
2022-10-15T08:14:26.912Z,20.70
2022-10-15T08:15:29.739Z,24.73
2022-10-15T08:16:32.688Z,19.55
2022-10-15T08:17:35.462Z,20.48
2022-10-15T08:18:38.905Z,22.13
2022-10-15T08:19:41.957Z,18.70
2022-10-15T08:20:44.875Z,21.35
2022-10-15T08:21:47.947Z,17.98
2022-10-15T08:22:50.870Z,16.80
2022-10-15T08:23:53.895Z,22.77
2022-10-15T08:25:06.758Z,16.95
2022-10-15T08:26:09.801Z,18.83
2022-10-15T08:27:13.117Z,18.38
2022-10-15T08:28:17.166Z,19.65
2022-10-15T08:29:20.169Z,17.25
2022-10-15T08:30:23.291Z,15.77
2022-10-15T08:31:26.236Z,17.65
2022-10-15T08:32:29.280Z,17.38
2022-10-15T08:33:33.572Z,17.95
2022-10-15T08:34:36.655Z,18.45
2022-10-15T08:35:44.076Z,17.65
2022-10-15T08:36:47.136Z,19.65
2022-10-15T08:37:53.381Z,18.35
2022-10-15T08:38:56.295Z,14.63
2022-10-15T08:39:59.159Z,17.88
2022-10-15T08:41:06.033Z,15.82
2022-10-15T08:42:24.603Z,17.85
2022-10-15T08:43:40.019Z,15.15
2022-10-15T08:45:02.572Z,18.80
2022-10-15T08:46:20.599Z,15.52
2022-10-15T08:47:32.576Z,17.13
2022-10-15T08:48:44.453Z,22.27
2022-10-15T08:49:56.959Z,17.55
2022-10-15T08:51:10.577Z,14.65
2022-10-15T08:52:32.707Z,14.25
2022-10-15T08:53:45.518Z,16.48
2022-10-15T08:54:48.806Z,13.30
2022-10-15T08:55:59.866Z,17.65
2022-10-15T08:57:57.897Z,16.02
2022-10-15T08:59:48.202Z,15.27
2022-10-15T09:00:56.702Z,16.63
2022-10-15T09:02:15.633Z,16.70
2022-10-15T09:03:42.838Z,15.15
2022-10-15T09:05:20.494Z,20.67
2022-10-15T09:06:38.717Z,14.15
2022-10-15T09:07:55.962Z,16.33
2022-10-15T09:09:07.248Z,14.45
2022-10-15T09:10:27.636Z,17.35
2022-10-15T09:13:25.500Z,16.10
2022-10-15T09:14:39.012Z,17.00
2022-10-15T09:16:02.504Z,15.15
2022-10-15T09:17:22.668Z,15.60
2022-10-15T09:18:31.776Z,16.55
2022-10-15T09:19:37.592Z,16.10
2022-10-15T09:20:43.585Z,11.63
2022-10-15T09:21:49.204Z,12.60
2022-10-15T09:22:52.882Z,15.70
2022-10-15T09:24:01.619Z,12.73
2022-10-15T09:25:32.225Z,13.43
2022-10-15T09:27:01.310Z,12.30
2022-10-15T09:28:11.541Z,14.52
2022-10-15T09:29:55.712Z,13.80
2022-10-15T09:31:01.386Z,12.18
2022-10-15T09:32:31.568Z,15.07
2022-10-15T09:33:56.664Z,13.75
2022-10-15T09:35:26.416Z,15.07
2022-10-15T09:36:42.139Z,12.00
2022-10-15T09:38:06.008Z,13.38
2022-10-15T09:39:31.810Z,12.10
2022-10-15T09:41:05.329Z,14.55
2022-10-15T09:42:38.264Z,15.10
2022-10-15T09:43:41.790Z,14.52
2022-10-15T09:44:47.312Z,20.45
2022-10-15T09:45:50.130Z,15.88
2022-10-15T09:46:54.786Z,16.95
2022-10-15T09:48:03.103Z,14.27
2022-10-15T09:49:33.840Z,14.55
2022-10-15T09:50:56.671Z,16.00
2022-10-15T09:52:08.766Z,13.73
2022-10-15T09:53:28.145Z,14.02
2022-10-15T09:55:32.472Z,12.65
2022-10-15T09:56:57.183Z,15.10
2022-10-15T09:58:18.566Z,15.32
2022-10-15T09:59:24.184Z,14.82
2022-10-15T10:01:16.637Z,14.02
2022-10-15T10:02:24.165Z,18.67
2022-10-15T10:03:31.043Z,14.77
2022-10-15T10:04:37.113Z,14.82
2022-10-15T10:05:40.294Z,14.52
2022-10-15T10:07:03.662Z,16.65
2022-10-15T10:08:22.843Z,18.73
2022-10-15T10:09:52.837Z,17.17
2022-10-15T10:11:02.001Z,16.98
2022-10-15T10:12:17.616Z,18.80
2022-10-15T10:13:30.306Z,15.32
2022-10-15T10:14:46.400Z,23.48
2022-10-15T10:15:56.041Z,18.38
2022-10-15T10:17:30.003Z,16.35
2022-10-15T10:18:33.424Z,19.08
2022-10-15T10:19:39.180Z,19.13
2022-10-15T10:20:59.872Z,18.40
2022-10-15T10:22:14.496Z,18.35
2022-10-15T10:23:31.574Z,17.85
2022-10-15T10:24:34.547Z,19.23
2022-10-15T10:25:42.586Z,15.52
2022-10-15T10:26:47.683Z,14.10
2022-10-15T10:27:50.695Z,18.25
2022-10-15T10:29:04.942Z,14.07
2022-10-15T10:30:14.469Z,17.92
2022-10-15T10:31:26.880Z,17.05
2022-10-15T10:32:35.458Z,14.38
2022-10-15T10:33:48.262Z,16.30
2022-10-15T10:34:52.924Z,20.73
2022-10-15T10:35:57.077Z,21.15
2022-10-15T10:37:04.747Z,13.52
2022-10-15T10:38:40.296Z,16.77
2022-10-15T10:39:45.036Z,15.13
2022-10-15T10:41:09.579Z,17.40
2022-10-15T10:42:18.665Z,17.40
2022-10-15T10:43:29.472Z,14.90
2022-10-15T10:44:39.528Z,13.77
2022-10-15T10:46:16.314Z,10.85
2022-10-15T10:47:35.544Z,13.57
2022-10-15T10:48:45.741Z,13.18
2022-10-15T10:49:57.479Z,11.93
2022-10-15T10:51:09.184Z,18.88
2022-10-15T10:52:30.042Z,18.35
2022-10-15T10:53:37.792Z,12.13
2022-10-15T10:55:50.576Z,18.63
2022-10-15T10:56:54.780Z,13.90
2022-10-15T10:58:00.289Z,13.68
2022-10-15T10:59:32.920Z,14.95
2022-10-15T11:00:46.382Z,11.50
2022-10-15T11:01:49.766Z,19.33
2022-10-15T11:02:53.819Z,14.70
2022-10-15T11:03:56.842Z,15.13
2022-10-15T11:05:00.112Z,17.55
2022-10-15T11:06:32.881Z,12.35
2022-10-15T11:08:32.061Z,13.00
2022-10-15T11:10:09.969Z,14.07
2022-10-15T11:11:53.486Z,14.85
2022-10-15T11:13:30.448Z,15.10
2022-10-15T11:14:55.913Z,12.80
2022-10-15T11:16:14.786Z,11.23
2022-10-15T11:17:51.820Z,13.73
2022-10-15T11:19:59.547Z,15.82
2022-10-15T11:21:21.995Z,14.80
2022-10-15T11:23:06.808Z,20.67
2022-10-15T11:24:19.837Z,14.32
2022-10-15T11:25:52.505Z,13.20
2022-10-15T11:27:35.418Z,15.15
2022-10-15T11:29:26.252Z,13.20
2022-10-15T11:32:25.567Z,12.38
2022-10-15T11:33:51.504Z,15.02
2022-10-15T11:35:52.329Z,16.10
2022-10-15T11:37:31.702Z,15.00
2022-10-15T11:38:43.869Z,17.33
2022-10-15T11:40:02.778Z,14.57
2022-10-15T11:41:37.863Z,13.75
2022-10-15T11:43:00.716Z,17.40
2022-10-15T11:44:37.615Z,19.45
2022-10-15T11:46:00.795Z,22.35
2022-10-15T11:47:51.025Z,17.30
2022-10-15T11:49:23.888Z,16.88
2022-10-15T11:50:39.521Z,14.60
2022-10-15T11:52:01.118Z,12.80
2022-10-15T11:53:23.058Z,11.88
2022-10-15T11:54:57.821Z,18.02
2022-10-15T11:56:28.908Z,20.85
2022-10-15T11:57:36.497Z,12.57
2022-10-15T11:58:48.039Z,15.07
2022-10-15T12:01:32.823Z,13.73
2022-10-15T12:02:39.195Z,19.17
2022-10-15T12:04:13.178Z,18.50
2022-10-15T12:05:28.808Z,16.27
2022-10-15T12:06:41.797Z,18.40
2022-10-15T12:07:50.293Z,14.70
2022-10-15T12:08:59.397Z,16.55
2022-10-15T12:10:13.746Z,22.42
2022-10-15T12:11:39.843Z,12.43
2022-10-15T12:13:05.533Z,17.42
2022-10-15T12:14:36.054Z,15.80
2022-10-15T12:16:05.943Z,17.27
2022-10-15T12:17:23.247Z,19.55
2022-10-15T12:18:41.644Z,20.13
2022-10-15T12:20:02.344Z,13.75
2022-10-15T12:22:47.412Z,20.85
2022-10-15T12:23:50.325Z,20.20
2022-10-15T12:24:54.917Z,18.70
2022-10-15T12:25:57.883Z,13.77
2022-10-15T12:27:26.926Z,17.50
2022-10-15T12:28:32.910Z,14.00
2022-10-15T12:29:35.884Z,19.38
2022-10-15T12:30:42.814Z,13.70
2022-10-15T12:31:53.545Z,15.57
2022-10-15T12:32:56.607Z,15.82
2022-10-15T12:33:59.587Z,16.25
2022-10-15T12:35:14.189Z,16.40
2022-10-15T12:36:19.766Z,18.17
2022-10-15T12:37:26.342Z,17.98
2022-10-15T12:38:34.660Z,15.02
2022-10-15T12:39:58.247Z,17.35
2022-10-15T12:41:11.114Z,13.80
2022-10-15T12:42:37.120Z,17.63
2022-10-15T12:44:03.799Z,17.42
2022-10-15T12:45:20.694Z,20.00
2022-10-15T12:46:38.727Z,18.13
2022-10-15T12:47:54.199Z,17.77
2022-10-15T12:48:58.329Z,14.20
2022-10-15T12:50:06.782Z,17.85
2022-10-15T12:51:24.440Z,15.48
2022-10-15T12:52:52.873Z,14.20
2022-10-15T12:53:57.869Z,13.00
2022-10-15T12:55:28.086Z,15.27
2022-10-15T12:56:42.921Z,14.98
2022-10-15T12:57:45.599Z,17.67
2022-10-15T12:58:54.917Z,20.27
2022-10-15T13:00:00.506Z,20.92
2022-10-15T13:01:16.371Z,17.33
2022-10-15T13:03:56.373Z,22.13
2022-10-15T13:04:59.496Z,15.48
2022-10-15T13:06:20.605Z,15.20
2022-10-15T13:07:24.176Z,17.80
2022-10-15T13:08:30.357Z,16.27
2022-10-15T13:09:33.366Z,15.63
2022-10-15T13:10:46.443Z,15.35
2022-10-15T13:11:54.768Z,18.05
2022-10-15T13:13:06.415Z,13.55
2022-10-15T13:14:32.971Z,18.40
2022-10-15T13:15:35.952Z,16.88
2022-10-15T13:16:47.564Z,15.23
2022-10-15T13:17:50.668Z,13.73
2022-10-15T13:18:59.106Z,19.42
2022-10-15T13:20:26.010Z,15.05
2022-10-15T13:21:58.517Z,17.20
2022-10-15T13:23:30.041Z,17.60
2022-10-15T13:24:43.779Z,15.07
2022-10-15T13:25:50.618Z,15.32
2022-10-15T13:26:57.186Z,15.95
2022-10-15T13:27:59.955Z,13.52
2022-10-15T13:29:03.076Z,14.98
2022-10-15T13:30:16.979Z,16.17
2022-10-15T13:31:30.477Z,15.07
2022-10-15T13:32:52.970Z,17.15
2022-10-15T13:34:11.216Z,16.75
2022-10-15T13:35:22.160Z,19.58
2022-10-15T13:36:31.070Z,15.30
2022-10-15T13:37:37.460Z,15.93
2022-10-15T13:38:45.191Z,17.38
2022-10-15T13:39:52.505Z,18.50
2022-10-15T13:40:55.352Z,21.20
2022-10-15T13:42:22.401Z,17.13
2022-10-15T13:43:27.446Z,18.60
2022-10-15T13:44:30.363Z,18.00
2022-10-15T13:45:33.830Z,20.35
2022-10-15T13:46:38.990Z,17.42
2022-10-15T13:47:49.648Z,16.45
2022-10-15T13:50:26.815Z,15.00
2022-10-15T13:51:38.341Z,17.63
2022-10-15T13:52:49.168Z,13.65
2022-10-15T13:53:52.037Z,15.73
2022-10-15T13:54:55.142Z,26.60
2022-10-15T13:56:14.942Z,17.85
2022-10-15T13:57:18.163Z,15.27
2022-10-15T13:58:30.200Z,15.70
2022-10-15T13:59:33.150Z,16.73
2022-10-15T14:00:37.421Z,18.98
2022-10-15T14:01:55.699Z,25.52
2022-10-15T14:03:20.630Z,14.13
2022-10-15T14:04:24.151Z,14.20
2022-10-15T14:05:27.197Z,19.55
2022-10-15T14:06:38.581Z,16.83
2022-10-15T14:07:41.570Z,15.25
2022-10-15T14:08:45.208Z,15.43
2022-10-15T14:09:48.666Z,14.23
2022-10-15T14:10:56.974Z,16.80
2022-10-15T14:12:03.218Z,22.38
2022-10-15T14:13:08.356Z,15.35
2022-10-15T14:14:41.572Z,17.85
2022-10-15T14:16:13.451Z,15.75
2022-10-15T14:17:27.222Z,13.48
2022-10-15T14:18:56.412Z,16.88
2022-10-15T14:20:26.252Z,19.15
2022-10-15T14:21:32.211Z,15.20
2022-10-15T14:22:35.705Z,19.38
2022-10-15T14:23:39.562Z,17.20
2022-10-15T14:24:42.845Z,15.13
2022-10-15T14:25:51.434Z,14.30
2022-10-15T14:26:54.501Z,15.88
2022-10-15T14:27:57.511Z,14.50
2022-10-15T14:29:01.460Z,18.85
2022-10-15T14:30:15.542Z,17.85
2022-10-15T14:31:47.040Z,19.52
2022-10-15T14:32:54.074Z,18.48
2022-10-15T14:33:57.080Z,20.42
2022-10-15T14:35:03.336Z,18.27
2022-10-15T14:36:27.643Z,22.98
2022-10-15T14:37:37.108Z,16.63
2022-10-15T14:38:42.239Z,16.25
2022-10-15T14:39:48.633Z,17.83
2022-10-15T14:41:23.317Z,23.13
2022-10-15T14:42:31.451Z,16.40
2022-10-15T14:43:37.227Z,15.75
2022-10-15T14:44:48.166Z,17.95
2022-10-15T14:45:51.011Z,19.08
2022-10-15T14:47:02.873Z,20.02
2022-10-15T14:48:21.662Z,21.08
2022-10-15T14:49:31.816Z,20.00
2022-10-15T14:50:41.081Z,20.95
2022-10-15T14:51:44.158Z,16.67
2022-10-15T14:52:53.089Z,18.33
2022-10-15T14:53:56.377Z,20.23
2022-10-15T14:55:33.735Z,20.38
2022-10-15T14:56:37.390Z,19.55
2022-10-15T14:57:45.131Z,17.80
2022-10-15T14:58:56.700Z,16.60
2022-10-15T15:00:01.234Z,19.40
2022-10-15T15:01:08.062Z,16.15
2022-10-15T15:02:16.727Z,14.23
2022-10-15T15:03:29.171Z,24.38
2022-10-15T15:04:52.838Z,19.38
2022-10-15T15:05:57.677Z,17.75
2022-10-15T15:07:00.499Z,18.20
2022-10-15T15:08:09.252Z,20.17
2022-10-15T15:09:12.291Z,20.10
2022-10-15T15:10:15.617Z,15.35
2022-10-15T15:11:23.024Z,20.00
2022-10-15T15:12:28.153Z,16.35
2022-10-15T15:13:41.224Z,18.20
2022-10-15T15:14:47.294Z,21.50
2022-10-15T15:15:50.630Z,20.20
2022-10-15T15:16:53.488Z,21.55
2022-10-15T15:17:56.405Z,26.85
2022-10-15T15:18:59.404Z,25.27
2022-10-15T15:21:10.575Z,23.98
2022-10-15T15:22:20.818Z,17.45
2022-10-15T15:23:27.525Z,22.83